sensor_id;sensor_type;location;lat;lon;timestamp;temperature;humidity
25554;DHT22;13446;50.926;5.332;2022-07-22T00:01:54;19.50;99.90
25554;DHT22;13446;50.926;5.332;2022-07-22T00:04:19;19.50;99.90
25554;DHT22;13446;50.926;5.332;2022-07-22T00:06:45;19.50;99.90
25554;DHT22;13446;50.926;5.332;2022-07-22T00:09:11;19.50;99.90
25554;DHT22;13446;50.926;5.332;2022-07-22T00:11:36;19.50;99.90
25554;DHT22;13446;50.926;5.332;2022-07-22T00:14:02;19.50;99.90
25554;DHT22;13446;50.926;5.332;2022-07-22T00:16:28;19.40;99.90
25554;DHT22;13446;50.926;5.332;2022-07-22T00:18:54;19.30;99.90
25554;DHT22;13446;50.926;5.332;2022-07-22T00:21:19;19.30;99.90
25554;DHT22;13446;50.926;5.332;2022-07-22T00:23:45;19.30;99.90
25554;DHT22;13446;50.926;5.332;2022-07-22T00:26:11;19.10;99.90
25554;DHT22;13446;50.926;5.332;2022-07-22T00:28:36;18.90;99.90
25554;DHT22;13446;50.926;5.332;2022-07-22T00:31:02;18.90;99.90
25554;DHT22;13446;50.926;5.332;2022-07-22T00:33:28;18.80;99.90
25554;DHT22;13446;50.926;5.332;2022-07-22T00:35:53;18.80;99.90
25554;DHT22;13446;50.926;5.332;2022-07-22T00:38:19;18.70;99.90
25554;DHT22;13446;50.926;5.332;2022-07-22T00:40:45;18.70;99.90
25554;DHT22;13446;50.926;5.332;2022-07-22T00:43:10;18.50;99.90
25554;DHT22;13446;50.926;5.332;2022-07-22T00:45:36;18.40;99.90
25554;DHT22;13446;50.926;5.332;2022-07-22T00:48:03;18.30;99.90
25554;DHT22;13446;50.926;5.332;2022-07-22T00:50:29;18.40;99.90
25554;DHT22;13446;50.926;5.332;2022-07-22T00:52:55;18.60;99.90
25554;DHT22;13446;50.926;5.332;2022-07-22T00:55:21;18.60;99.90
25554;DHT22;13446;50.926;5.332;2022-07-22T00:57:46;18.60;99.90
25554;DHT22;13446;50.926;5.332;2022-07-22T01:00:17;18.40;99.90
25554;DHT22;13446;50.926;5.332;2022-07-22T01:02:43;18.50;99.90
25554;DHT22;13446;50.926;5.332;2022-07-22T01:05:09;18.50;99.90
25554;DHT22;13446;50.926;5.332;2022-07-22T01:07:37;18.50;99.90
25554;DHT22;13446;50.926;5.332;2022-07-22T01:10:04;18.60;99.90
25554;DHT22;13446;50.926;5.332;2022-07-22T01:12:30;18.60;99.90
25554;DHT22;13446;50.926;5.332;2022-07-22T01:14:56;18.50;99.90
25554;DHT22;13446;50.926;5.332;2022-07-22T01:17:22;18.60;99.90
25554;DHT22;13446;50.926;5.332;2022-07-22T01:19:48;18.70;99.90
25554;DHT22;13446;50.926;5.332;2022-07-22T01:22:13;18.80;99.90
25554;DHT22;13446;50.926;5.332;2022-07-22T01:24:39;18.80;99.90
25554;DHT22;13446;50.926;5.332;2022-07-22T01:27:05;18.80;99.90
25554;DHT22;13446;50.926;5.332;2022-07-22T01:29:30;18.80;99.90
25554;DHT22;13446;50.926;5.332;2022-07-22T01:31:57;18.80;99.90
25554;DHT22;13446;50.926;5.332;2022-07-22T01:34:23;18.80;99.90
25554;DHT22;13446;50.926;5.332;2022-07-22T01:36:49;18.80;99.90
25554;DHT22;13446;50.926;5.332;2022-07-22T01:39:16;18.80;99.90
25554;DHT22;13446;50.926;5.332;2022-07-22T01:41:42;18.80;99.90
25554;DHT22;13446;50.926;5.332;2022-07-22T01:44:08;18.90;99.90
25554;DHT22;13446;50.926;5.332;2022-07-22T01:46:34;18.80;99.90
25554;DHT22;13446;50.926;5.332;2022-07-22T01:49:00;18.80;99.90
25554;DHT22;13446;50.926;5.332;2022-07-22T01:51:26;18.60;99.90
25554;DHT22;13446;50.926;5.332;2022-07-22T01:53:51;18.70;99.90
25554;DHT22;13446;50.926;5.332;2022-07-22T01:56:17;18.60;99.90
25554;DHT22;13446;50.926;5.332;2022-07-22T01:58:43;18.50;99.90
25554;DHT22;13446;50.926;5.332;2022-07-22T02:01:09;18.40;99.90
25554;DHT22;13446;50.926;5.332;2022-07-22T02:03:35;18.30;99.90
25554;DHT22;13446;50.926;5.332;2022-07-22T02:06:01;18.20;99.90
25554;DHT22;13446;50.926;5.332;2022-07-22T02:08:27;18.30;99.90
25554;DHT22;13446;50.926;5.332;2022-07-22T02:10:52;18.30;99.90
25554;DHT22;13446;50.926;5.332;2022-07-22T02:13:18;18.30;99.90
25554;DHT22;13446;50.926;5.332;2022-07-22T02:15:44;18.30;99.90
25554;DHT22;13446;50.926;5.332;2022-07-22T02:18:12;18.20;99.90
25554;DHT22;13446;50.926;5.332;2022-07-22T02:20:38;18.10;99.90
25554;DHT22;13446;50.926;5.332;2022-07-22T02:23:04;18.10;99.90
25554;DHT22;13446;50.926;5.332;2022-07-22T02:25:30;18.00;99.90
25554;DHT22;13446;50.926;5.332;2022-07-22T02:27:56;18.20;99.90
25554;DHT22;13446;50.926;5.332;2022-07-22T02:30:22;18.20;99.90
25554;DHT22;13446;50.926;5.332;2022-07-22T02:32:48;18.20;99.90
25554;DHT22;13446;50.926;5.332;2022-07-22T02:35:13;18.10;99.90
25554;DHT22;13446;50.926;5.332;2022-07-22T02:37:39;18.20;99.90
25554;DHT22;13446;50.926;5.332;2022-07-22T02:40:06;18.40;99.90
25554;DHT22;13446;50.926;5.332;2022-07-22T02:42:31;18.40;99.90
25554;DHT22;13446;50.926;5.332;2022-07-22T02:44:57;18.30;99.90
25554;DHT22;13446;50.926;5.332;2022-07-22T02:47:23;18.30;99.90
25554;DHT22;13446;50.926;5.332;2022-07-22T02:49:49;18.20;99.90
25554;DHT22;13446;50.926;5.332;2022-07-22T02:52:14;18.10;99.90
25554;DHT22;13446;50.926;5.332;2022-07-22T02:54:40;17.90;99.90
25554;DHT22;13446;50.926;5.332;2022-07-22T02:57:06;17.90;99.90
25554;DHT22;13446;50.926;5.332;2022-07-22T02:59:31;17.80;99.90
25554;DHT22;13446;50.926;5.332;2022-07-22T03:01:57;17.90;99.90
25554;DHT22;13446;50.926;5.332;2022-07-22T03:04:23;17.90;99.90
25554;DHT22;13446;50.926;5.332;2022-07-22T03:06:48;17.70;99.90
25554;DHT22;13446;50.926;5.332;2022-07-22T03:09:14;17.80;99.90
25554;DHT22;13446;50.926;5.332;2022-07-22T03:11:40;17.60;99.90
25554;DHT22;13446;50.926;5.332;2022-07-22T03:14:05;17.60;99.90
25554;DHT22;13446;50.926;5.332;2022-07-22T03:16:34;17.70;99.90
25554;DHT22;13446;50.926;5.332;2022-07-22T03:19:00;17.70;99.90
25554;DHT22;13446;50.926;5.332;2022-07-22T03:21:26;17.70;99.90
25554;DHT22;13446;50.926;5.332;2022-07-22T03:23:52;17.60;99.90
25554;DHT22;13446;50.926;5.332;2022-07-22T03:26:22;17.70;99.90
25554;DHT22;13446;50.926;5.332;2022-07-22T03:28:49;17.90;99.90
25554;DHT22;13446;50.926;5.332;2022-07-22T03:31:15;17.90;99.90
25554;DHT22;13446;50.926;5.332;2022-07-22T03:33:40;17.90;99.90
25554;DHT22;13446;50.926;5.332;2022-07-22T03:36:06;17.90;99.90
25554;DHT22;13446;50.926;5.332;2022-07-22T03:38:33;17.90;99.90
25554;DHT22;13446;50.926;5.332;2022-07-22T03:41:00;17.90;99.90
25554;DHT22;13446;50.926;5.332;2022-07-22T03:43:26;17.80;99.90
25554;DHT22;13446;50.926;5.332;2022-07-22T03:45:52;17.80;99.90
25554;DHT22;13446;50.926;5.332;2022-07-22T03:48:18;17.50;99.90
25554;DHT22;13446;50.926;5.332;2022-07-22T03:50:43;17.40;99.90
25554;DHT22;13446;50.926;5.332;2022-07-22T03:53:09;17.50;99.90
25554;DHT22;13446;50.926;5.332;2022-07-22T03:55:36;17.50;99.90
25554;DHT22;13446;50.926;5.332;2022-07-22T03:58:02;17.40;99.90
25554;DHT22;13446;50.926;5.332;2022-07-22T04:00:31;17.40;99.90
25554;DHT22;13446;50.926;5.332;2022-07-22T04:02:56;17.60;99.90
25554;DHT22;13446;50.926;5.332;2022-07-22T04:05:22;17.60;99.90
25554;DHT22;13446;50.926;5.332;2022-07-22T04:07:47;17.60;99.90
25554;DHT22;13446;50.926;5.332;2022-07-22T04:10:13;17.50;99.90
25554;DHT22;13446;50.926;5.332;2022-07-22T04:12:39;17.60;99.90
25554;DHT22;13446;50.926;5.332;2022-07-22T04:15:07;17.50;99.90
25554;DHT22;13446;50.926;5.332;2022-07-22T04:17:33;17.50;99.90
25554;DHT22;13446;50.926;5.332;2022-07-22T04:19:59;17.50;99.90
25554;DHT22;13446;50.926;5.332;2022-07-22T04:22:26;17.50;99.90
25554;DHT22;13446;50.926;5.332;2022-07-22T04:24:52;17.50;99.90
25554;DHT22;13446;50.926;5.332;2022-07-22T04:27:18;17.50;99.90
25554;DHT22;13446;50.926;5.332;2022-07-22T04:29:43;17.50;99.90
25554;DHT22;13446;50.926;5.332;2022-07-22T04:32:09;17.40;99.90
25554;DHT22;13446;50.926;5.332;2022-07-22T04:34:35;17.30;99.90
25554;DHT22;13446;50.926;5.332;2022-07-22T04:37:01;17.40;99.90
25554;DHT22;13446;50.926;5.332;2022-07-22T04:39:27;17.50;99.90
25554;DHT22;13446;50.926;5.332;2022-07-22T04:41:53;17.60;99.90
25554;DHT22;13446;50.926;5.332;2022-07-22T04:44:18;17.60;99.90
25554;DHT22;13446;50.926;5.332;2022-07-22T04:46:44;17.80;99.90
25554;DHT22;13446;50.926;5.332;2022-07-22T04:49:10;17.80;99.90
25554;DHT22;13446;50.926;5.332;2022-07-22T04:51:37;17.90;99.90
25554;DHT22;13446;50.926;5.332;2022-07-22T04:54:02;17.80;99.90
25554;DHT22;13446;50.926;5.332;2022-07-22T04:56:28;17.80;99.90
25554;DHT22;13446;50.926;5.332;2022-07-22T04:58:54;17.80;99.90
25554;DHT22;13446;50.926;5.332;2022-07-22T05:01:19;17.70;99.90
25554;DHT22;13446;50.926;5.332;2022-07-22T05:03:45;17.90;99.90
25554;DHT22;13446;50.926;5.332;2022-07-22T05:06:11;17.80;99.90
25554;DHT22;13446;50.926;5.332;2022-07-22T05:08:36;18.00;99.90
25554;DHT22;13446;50.926;5.332;2022-07-22T05:11:02;18.10;99.90
25554;DHT22;13446;50.926;5.332;2022-07-22T05:13:28;18.10;99.90
25554;DHT22;13446;50.926;5.332;2022-07-22T05:15:53;18.20;99.90
25554;DHT22;13446;50.926;5.332;2022-07-22T05:18:19;18.20;99.90
25554;DHT22;13446;50.926;5.332;2022-07-22T05:20:45;18.40;99.90
25554;DHT22;13446;50.926;5.332;2022-07-22T05:23:10;18.90;99.90
25554;DHT22;13446;50.926;5.332;2022-07-22T05:25:36;19.50;99.90
25554;DHT22;13446;50.926;5.332;2022-07-22T05:28:02;20.40;99.90
25554;DHT22;13446;50.926;5.332;2022-07-22T05:30:27;21.10;99.90
25554;DHT22;13446;50.926;5.332;2022-07-22T05:32:53;21.70;99.90
25554;DHT22;13446;50.926;5.332;2022-07-22T05:35:19;22.30;99.90
25554;DHT22;13446;50.926;5.332;2022-07-22T05:37:46;22.90;99.90
25554;DHT22;13446;50.926;5.332;2022-07-22T05:40:12;23.60;99.90
25554;DHT22;13446;50.926;5.332;2022-07-22T05:42:37;23.90;99.90
25554;DHT22;13446;50.926;5.332;2022-07-22T05:45:03;24.40;99.90
25554;DHT22;13446;50.926;5.332;2022-07-22T05:47:29;25.00;99.90
25554;DHT22;13446;50.926;5.332;2022-07-22T05:49:55;25.70;99.90
25554;DHT22;13446;50.926;5.332;2022-07-22T05:52:22;26.20;98.20
25554;DHT22;13446;50.926;5.332;2022-07-22T05:54:48;26.60;96.50
25554;DHT22;13446;50.926;5.332;2022-07-22T05:57:13;26.80;95.10
25554;DHT22;13446;50.926;5.332;2022-07-22T05:59:39;26.90;93.40
25554;DHT22;13446;50.926;5.332;2022-07-22T06:02:08;27.30;91.20
25554;DHT22;13446;50.926;5.332;2022-07-22T06:04:34;27.20;90.10
25554;DHT22;13446;50.926;5.332;2022-07-22T06:06:59;27.60;88.70
25554;DHT22;13446;50.926;5.332;2022-07-22T06:09:25;28.00;86.50
25554;DHT22;13446;50.926;5.332;2022-07-22T06:11:51;28.50;82.90
25554;DHT22;13446;50.926;5.332;2022-07-22T06:14:16;28.80;81.10
25554;DHT22;13446;50.926;5.332;2022-07-22T06:16:42;28.60;78.70
25554;DHT22;13446;50.926;5.332;2022-07-22T06:19:08;28.50;80.10
25554;DHT22;13446;50.926;5.332;2022-07-22T06:21:33;28.50;78.80
25554;DHT22;13446;50.926;5.332;2022-07-22T06:23:59;28.60;75.50
25554;DHT22;13446;50.926;5.332;2022-07-22T06:26:24;28.80;74.70
25554;DHT22;13446;50.926;5.332;2022-07-22T06:28:50;29.10;72.80
25554;DHT22;13446;50.926;5.332;2022-07-22T06:31:16;28.50;74.00
25554;DHT22;13446;50.926;5.332;2022-07-22T06:33:42;29.00;72.20
25554;DHT22;13446;50.926;5.332;2022-07-22T06:36:08;29.10;72.30
25554;DHT22;13446;50.926;5.332;2022-07-22T06:38:36;30.00;70.50
25554;DHT22;13446;50.926;5.332;2022-07-22T06:41:02;29.90;65.30
25554;DHT22;13446;50.926;5.332;2022-07-22T06:43:28;30.20;63.60
25554;DHT22;13446;50.926;5.332;2022-07-22T06:45:54;29.60;65.40
25554;DHT22;13446;50.926;5.332;2022-07-22T06:48:21;30.10;64.40
25554;DHT22;13446;50.926;5.332;2022-07-22T06:50:47;29.30;64.00
25554;DHT22;13446;50.926;5.332;2022-07-22T06:53:12;28.70;66.40
25554;DHT22;13446;50.926;5.332;2022-07-22T06:55:38;28.50;68.40
25554;DHT22;13446;50.926;5.332;2022-07-22T06:58:03;29.10;66.50
25554;DHT22;13446;50.926;5.332;2022-07-22T07:00:29;29.20;65.90
25554;DHT22;13446;50.926;5.332;2022-07-22T07:03:00;29.80;65.00
25554;DHT22;13446;50.926;5.332;2022-07-22T07:05:27;30.20;63.00
25554;DHT22;13446;50.926;5.332;2022-07-22T07:07:54;29.70;62.30
25554;DHT22;13446;50.926;5.332;2022-07-22T07:10:20;28.80;65.90
25554;DHT22;13446;50.926;5.332;2022-07-22T07:12:46;28.40;68.00
25554;DHT22;13446;50.926;5.332;2022-07-22T07:15:12;27.80;70.80
25554;DHT22;13446;50.926;5.332;2022-07-22T07:17:37;27.50;72.60
25554;DHT22;13446;50.926;5.332;2022-07-22T07:20:04;27.40;72.90
25554;DHT22;13446;50.926;5.332;2022-07-22T07:22:31;27.40;75.40
25554;DHT22;13446;50.926;5.332;2022-07-22T07:25:01;26.40;79.80
25554;DHT22;13446;50.926;5.332;2022-07-22T07:27:28;26.30;80.10
25554;DHT22;13446;50.926;5.332;2022-07-22T07:29:53;25.30;84.50
25554;DHT22;13446;50.926;5.332;2022-07-22T07:32:19;24.60;88.80
25554;DHT22;13446;50.926;5.332;2022-07-22T07:34:45;24.60;90.20
25554;DHT22;13446;50.926;5.332;2022-07-22T07:37:12;24.80;90.60
25554;DHT22;13446;50.926;5.332;2022-07-22T07:39:38;25.10;90.50
25554;DHT22;13446;50.926;5.332;2022-07-22T07:42:03;25.70;88.30
25554;DHT22;13446;50.926;5.332;2022-07-22T07:44:30;25.80;87.40
25554;DHT22;13446;50.926;5.332;2022-07-22T07:46:56;26.30;85.70
25554;DHT22;13446;50.926;5.332;2022-07-22T07:49:22;27.40;82.20
25554;DHT22;13446;50.926;5.332;2022-07-22T07:51:47;28.30;75.50
25554;DHT22;13446;50.926;5.332;2022-07-22T07:54:13;28.00;74.80
25554;DHT22;13446;50.926;5.332;2022-07-22T07:56:38;28.00;73.60
25554;DHT22;13446;50.926;5.332;2022-07-22T07:59:04;28.20;73.10
25554;DHT22;13446;50.926;5.332;2022-07-22T08:01:30;27.60;73.30
25554;DHT22;13446;50.926;5.332;2022-07-22T08:03:56;27.50;75.80
25554;DHT22;13446;50.926;5.332;2022-07-22T08:06:22;26.80;77.50
25554;DHT22;13446;50.926;5.332;2022-07-22T08:08:48;27.50;77.60
25554;DHT22;13446;50.926;5.332;2022-07-22T08:11:13;29.20;72.80
25554;DHT22;13446;50.926;5.332;2022-07-22T08:13:39;30.70;68.40
25554;DHT22;13446;50.926;5.332;2022-07-22T08:16:05;31.40;63.10
25554;DHT22;13446;50.926;5.332;2022-07-22T08:18:30;30.90;61.50
25554;DHT22;13446;50.926;5.332;2022-07-22T08:20:56;30.30;62.00
25554;DHT22;13446;50.926;5.332;2022-07-22T08:23:22;30.20;62.80
25554;DHT22;13446;50.926;5.332;2022-07-22T08:25:48;29.70;63.10
25554;DHT22;13446;50.926;5.332;2022-07-22T08:28:14;30.10;64.00
25554;DHT22;13446;50.926;5.332;2022-07-22T08:30:40;30.30;61.40
25554;DHT22;13446;50.926;5.332;2022-07-22T08:33:06;31.00;60.10
25554;DHT22;13446;50.926;5.332;2022-07-22T08:35:32;30.20;61.10
25554;DHT22;13446;50.926;5.332;2022-07-22T08:37:58;31.10;59.60
25554;DHT22;13446;50.926;5.332;2022-07-22T08:40:24;32.00;58.60
25554;DHT22;13446;50.926;5.332;2022-07-22T08:42:51;33.30;55.90
25554;DHT22;13446;50.926;5.332;2022-07-22T08:45:17;34.30;52.80
25554;DHT22;13446;50.926;5.332;2022-07-22T08:47:48;34.40;52.10
25554;DHT22;13446;50.926;5.332;2022-07-22T08:50:16;35.30;51.90
25554;DHT22;13446;50.926;5.332;2022-07-22T08:52:41;35.90;47.40
25554;DHT22;13446;50.926;5.332;2022-07-22T08:55:08;36.10;46.80
25554;DHT22;13446;50.926;5.332;2022-07-22T08:57:34;35.60;45.40
25554;DHT22;13446;50.926;5.332;2022-07-22T09:00:10;35.20;45.80
25554;DHT22;13446;50.926;5.332;2022-07-22T09:02:38;34.40;47.30
25554;DHT22;13446;50.926;5.332;2022-07-22T09:05:06;33.60;50.30
25554;DHT22;13446;50.926;5.332;2022-07-22T09:07:41;33.90;48.30
25554;DHT22;13446;50.926;5.332;2022-07-22T09:10:10;33.70;49.80
25554;DHT22;13446;50.926;5.332;2022-07-22T09:12:51;33.90;49.10
25554;DHT22;13446;50.926;5.332;2022-07-22T09:15:25;33.70;48.80
25554;DHT22;13446;50.926;5.332;2022-07-22T09:17:52;34.10;48.00
25554;DHT22;13446;50.926;5.332;2022-07-22T09:20:19;34.20;47.30
25554;DHT22;13446;50.926;5.332;2022-07-22T09:22:46;34.50;47.70
25554;DHT22;13446;50.926;5.332;2022-07-22T09:25:32;33.80;47.90
25554;DHT22;13446;50.926;5.332;2022-07-22T09:30:53;35.40;46.10
25554;DHT22;13446;50.926;5.332;2022-07-22T09:33:21;36.40;44.10
25554;DHT22;13446;50.926;5.332;2022-07-22T09:35:48;35.60;44.50
25554;DHT22;13446;50.926;5.332;2022-07-22T09:38:16;34.60;44.90
25554;DHT22;13446;50.926;5.332;2022-07-22T09:40:47;34.60;45.60
25554;DHT22;13446;50.926;5.332;2022-07-22T09:43:15;34.60;45.60
25554;DHT22;13446;50.926;5.332;2022-07-22T09:48:20;34.30;46.20
25554;DHT22;13446;50.926;5.332;2022-07-22T09:50:48;35.40;45.90
25554;DHT22;13446;50.926;5.332;2022-07-22T09:53:16;35.00;45.00
25554;DHT22;13446;50.926;5.332;2022-07-22T09:55:42;35.30;45.00
25554;DHT22;13446;50.926;5.332;2022-07-22T09:58:08;34.40;46.30
25554;DHT22;13446;50.926;5.332;2022-07-22T10:00:36;33.90;46.50
25554;DHT22;13446;50.926;5.332;2022-07-22T10:03:05;33.40;47.70
25554;DHT22;13446;50.926;5.332;2022-07-22T10:05:37;33.10;48.70
25554;DHT22;13446;50.926;5.332;2022-07-22T10:08:05;34.50;48.00
25554;DHT22;13446;50.926;5.332;2022-07-22T10:10:33;35.80;46.00
25554;DHT22;13446;50.926;5.332;2022-07-22T10:13:00;35.80;44.20
25554;DHT22;13446;50.926;5.332;2022-07-22T10:15:27;35.90;44.10
25554;DHT22;13446;50.926;5.332;2022-07-22T10:17:56;35.60;43.80
25554;DHT22;13446;50.926;5.332;2022-07-22T10:20:25;35.30;44.80
25554;DHT22;13446;50.926;5.332;2022-07-22T10:22:57;33.90;47.00
25554;DHT22;13446;50.926;5.332;2022-07-22T10:25:25;34.20;46.70
25554;DHT22;13446;50.926;5.332;2022-07-22T10:27:56;34.80;45.30
25554;DHT22;13446;50.926;5.332;2022-07-22T10:30:36;34.10;46.00
25554;DHT22;13446;50.926;5.332;2022-07-22T10:35:57;35.90;44.00
25554;DHT22;13446;50.926;5.332;2022-07-22T10:38:24;35.20;45.20
25554;DHT22;13446;50.926;5.332;2022-07-22T10:43:24;36.80;42.70
25554;DHT22;13446;50.926;5.332;2022-07-22T10:46:01;36.70;42.30
25554;DHT22;13446;50.926;5.332;2022-07-22T10:51:19;33.80;48.10
25554;DHT22;13446;50.926;5.332;2022-07-22T10:53:58;35.00;46.40
25554;DHT22;13446;50.926;5.332;2022-07-22T10:56:34;35.70;45.60
25554;DHT22;13446;50.926;5.332;2022-07-22T10:59:11;36.30;44.40
25554;DHT22;13446;50.926;5.332;2022-07-22T11:01:46;35.70;44.30
25554;DHT22;13446;50.926;5.332;2022-07-22T11:06:41;35.50;45.90
25554;DHT22;13446;50.926;5.332;2022-07-22T11:09:11;35.40;44.80
25554;DHT22;13446;50.926;5.332;2022-07-22T11:11:54;34.80;46.50
25554;DHT22;13446;50.926;5.332;2022-07-22T11:14:22;34.80;46.70
25554;DHT22;13446;50.926;5.332;2022-07-22T11:16:57;35.40;45.70
25554;DHT22;13446;50.926;5.332;2022-07-22T11:19:28;34.00;45.80
25554;DHT22;13446;50.926;5.332;2022-07-22T11:21:57;31.80;49.60
25554;DHT22;13446;50.926;5.332;2022-07-22T11:24:24;33.70;48.90
25554;DHT22;13446;50.926;5.332;2022-07-22T11:26:52;35.00;47.00
25554;DHT22;13446;50.926;5.332;2022-07-22T11:29:29;35.90;45.50
25554;DHT22;13446;50.926;5.332;2022-07-22T11:31:57;36.40;44.80
25554;DHT22;13446;50.926;5.332;2022-07-22T11:34:23;35.80;44.40
25554;DHT22;13446;50.926;5.332;2022-07-22T11:36:49;35.60;44.30
25554;DHT22;13446;50.926;5.332;2022-07-22T11:39:21;35.90;44.40
25554;DHT22;13446;50.926;5.332;2022-07-22T11:41:48;36.30;44.10
25554;DHT22;13446;50.926;5.332;2022-07-22T11:44:20;36.00;43.40
25554;DHT22;13446;50.926;5.332;2022-07-22T11:46:46;36.40;44.20
25554;DHT22;13446;50.926;5.332;2022-07-22T11:49:21;36.80;42.80
25554;DHT22;13446;50.926;5.332;2022-07-22T11:51:47;37.10;43.30
25554;DHT22;13446;50.926;5.332;2022-07-22T11:54:14;37.30;43.30
25554;DHT22;13446;50.926;5.332;2022-07-22T11:56:39;35.40;44.90
25554;DHT22;13446;50.926;5.332;2022-07-22T11:59:07;35.50;45.30
25554;DHT22;13446;50.926;5.332;2022-07-22T12:01:36;35.20;45.40
25554;DHT22;13446;50.926;5.332;2022-07-22T12:04:04;35.40;45.00
25554;DHT22;13446;50.926;5.332;2022-07-22T12:06:32;35.40;44.10
25554;DHT22;13446;50.926;5.332;2022-07-22T12:09:14;34.90;45.20
25554;DHT22;13446;50.926;5.332;2022-07-22T12:11:43;34.90;45.20
25554;DHT22;13446;50.926;5.332;2022-07-22T12:14:23;34.50;45.50
25554;DHT22;13446;50.926;5.332;2022-07-22T12:17:09;34.70;45.50
25554;DHT22;13446;50.926;5.332;2022-07-22T12:19:37;34.50;45.40
25554;DHT22;13446;50.926;5.332;2022-07-22T12:22:07;34.40;45.50
25554;DHT22;13446;50.926;5.332;2022-07-22T12:24:37;34.20;47.60
25554;DHT22;13446;50.926;5.332;2022-07-22T12:27:07;34.70;46.70
25554;DHT22;13446;50.926;5.332;2022-07-22T12:32:10;34.60;45.10
25554;DHT22;13446;50.926;5.332;2022-07-22T12:34:47;34.60;45.40
25554;DHT22;13446;50.926;5.332;2022-07-22T12:37:22;34.70;46.50
25554;DHT22;13446;50.926;5.332;2022-07-22T12:40:01;35.00;46.30
25554;DHT22;13446;50.926;5.332;2022-07-22T12:42:31;35.20;45.30
25554;DHT22;13446;50.926;5.332;2022-07-22T12:45:30;34.80;45.10
25554;DHT22;13446;50.926;5.332;2022-07-22T12:50:43;35.20;44.80
25554;DHT22;13446;50.926;5.332;2022-07-22T12:53:13;35.00;46.70
25554;DHT22;13446;50.926;5.332;2022-07-22T12:58:09;34.20;47.60
25554;DHT22;13446;50.926;5.332;2022-07-22T13:00:41;34.50;46.80
25554;DHT22;13446;50.926;5.332;2022-07-22T13:03:08;34.60;45.50
25554;DHT22;13446;50.926;5.332;2022-07-22T13:05:33;33.70;47.10
25554;DHT22;13446;50.926;5.332;2022-07-22T13:08:00;33.60;47.60
25554;DHT22;13446;50.926;5.332;2022-07-22T13:10:26;33.50;47.50
25554;DHT22;13446;50.926;5.332;2022-07-22T13:12:54;34.00;47.50
25554;DHT22;13446;50.926;5.332;2022-07-22T13:15:21;34.30;45.80
25554;DHT22;13446;50.926;5.332;2022-07-22T13:17:48;34.00;46.20
25554;DHT22;13446;50.926;5.332;2022-07-22T13:20:15;33.50;48.70
25554;DHT22;13446;50.926;5.332;2022-07-22T13:22:45;33.00;48.50
25554;DHT22;13446;50.926;5.332;2022-07-22T13:25:12;33.00;48.50
25554;DHT22;13446;50.926;5.332;2022-07-22T13:27:39;33.00;48.60
25554;DHT22;13446;50.926;5.332;2022-07-22T13:30:05;32.40;49.90
25554;DHT22;13446;50.926;5.332;2022-07-22T13:32:31;32.10;50.50
25554;DHT22;13446;50.926;5.332;2022-07-22T13:34:57;32.40;49.60
25554;DHT22;13446;50.926;5.332;2022-07-22T13:37:23;32.20;49.40
25554;DHT22;13446;50.926;5.332;2022-07-22T13:39:50;32.20;50.40
25554;DHT22;13446;50.926;5.332;2022-07-22T13:42:17;31.80;50.70
25554;DHT22;13446;50.926;5.332;2022-07-22T13:44:46;30.80;52.20
25554;DHT22;13446;50.926;5.332;2022-07-22T13:47:12;31.20;51.70
25554;DHT22;13446;50.926;5.332;2022-07-22T13:49:39;31.20;51.30
25554;DHT22;13446;50.926;5.332;2022-07-22T13:52:05;30.90;51.40
25554;DHT22;13446;50.926;5.332;2022-07-22T13:54:31;31.50;50.80
25554;DHT22;13446;50.926;5.332;2022-07-22T13:56:59;31.80;51.80
25554;DHT22;13446;50.926;5.332;2022-07-22T13:59:25;31.00;52.00
25554;DHT22;13446;50.926;5.332;2022-07-22T14:01:51;31.10;52.40
25554;DHT22;13446;50.926;5.332;2022-07-22T14:04:17;31.40;51.50
25554;DHT22;13446;50.926;5.332;2022-07-22T14:06:43;31.50;51.40
25554;DHT22;13446;50.926;5.332;2022-07-22T14:09:08;31.50;50.80
25554;DHT22;13446;50.926;5.332;2022-07-22T14:11:34;31.40;51.40
25554;DHT22;13446;50.926;5.332;2022-07-22T14:14:00;31.30;52.80
25554;DHT22;13446;50.926;5.332;2022-07-22T14:16:26;31.00;53.00
25554;DHT22;13446;50.926;5.332;2022-07-22T14:19:12;31.00;52.40
25554;DHT22;13446;50.926;5.332;2022-07-22T14:21:42;30.90;51.80
25554;DHT22;13446;50.926;5.332;2022-07-22T14:24:09;30.70;54.60
25554;DHT22;13446;50.926;5.332;2022-07-22T14:26:36;30.60;53.00
25554;DHT22;13446;50.926;5.332;2022-07-22T14:29:03;30.70;53.10
25554;DHT22;13446;50.926;5.332;2022-07-22T14:31:29;30.70;53.20
25554;DHT22;13446;50.926;5.332;2022-07-22T14:33:55;31.00;54.90
25554;DHT22;13446;50.926;5.332;2022-07-22T14:36:21;30.60;53.40
25554;DHT22;13446;50.926;5.332;2022-07-22T14:38:48;30.90;53.50
25554;DHT22;13446;50.926;5.332;2022-07-22T14:41:17;31.20;53.00
25554;DHT22;13446;50.926;5.332;2022-07-22T14:43:42;30.90;54.40
25554;DHT22;13446;50.926;5.332;2022-07-22T14:46:08;30.70;54.60
25554;DHT22;13446;50.926;5.332;2022-07-22T14:48:37;31.10;54.20
25554;DHT22;13446;50.926;5.332;2022-07-22T14:51:03;30.90;53.70
25554;DHT22;13446;50.926;5.332;2022-07-22T14:53:29;30.70;53.60
25554;DHT22;13446;50.926;5.332;2022-07-22T14:55:55;30.40;54.30
25554;DHT22;13446;50.926;5.332;2022-07-22T14:58:21;30.00;54.60
25554;DHT22;13446;50.926;5.332;2022-07-22T15:00:46;29.80;55.10
25554;DHT22;13446;50.926;5.332;2022-07-22T15:03:13;29.50;55.60
25554;DHT22;13446;50.926;5.332;2022-07-22T15:05:38;29.60;56.10
25554;DHT22;13446;50.926;5.332;2022-07-22T15:08:08;29.60;57.20
25554;DHT22;13446;50.926;5.332;2022-07-22T15:10:34;29.90;56.90
25554;DHT22;13446;50.926;5.332;2022-07-22T15:13:00;30.00;55.90
25554;DHT22;13446;50.926;5.332;2022-07-22T15:15:26;30.00;55.80
25554;DHT22;13446;50.926;5.332;2022-07-22T15:17:53;29.70;55.70
25554;DHT22;13446;50.926;5.332;2022-07-22T15:20:19;29.60;57.20
25554;DHT22;13446;50.926;5.332;2022-07-22T15:22:44;29.40;56.90
25554;DHT22;13446;50.926;5.332;2022-07-22T15:25:10;29.30;58.20
25554;DHT22;13446;50.926;5.332;2022-07-22T15:27:36;29.40;58.00
25554;DHT22;13446;50.926;5.332;2022-07-22T15:30:08;29.50;57.00
25554;DHT22;13446;50.926;5.332;2022-07-22T15:32:36;29.30;57.10
25554;DHT22;13446;50.926;5.332;2022-07-22T15:35:03;29.40;57.30
25554;DHT22;13446;50.926;5.332;2022-07-22T15:37:29;29.30;58.40
25554;DHT22;13446;50.926;5.332;2022-07-22T15:39:55;29.30;57.60
25554;DHT22;13446;50.926;5.332;2022-07-22T15:42:20;29.10;57.80
25554;DHT22;13446;50.926;5.332;2022-07-22T15:44:46;29.10;58.10
25554;DHT22;13446;50.926;5.332;2022-07-22T15:47:12;29.10;59.00
25554;DHT22;13446;50.926;5.332;2022-07-22T15:49:38;29.30;58.90
25554;DHT22;13446;50.926;5.332;2022-07-22T15:52:04;29.20;59.00
25554;DHT22;13446;50.926;5.332;2022-07-22T15:54:31;29.10;58.90